Airway Heights, Washington
Current Conditions -  °F | °C
As of 8:53 PM on Saturday 22 Nov 2014 (Local Time) from KGEG Reporting Station
Few Clouds Few Clouds  
Wind Chill: 25°   Ceiling: Unl
Heat Index: 31°   Visibility: 10mi
Dew Point: 30°   Wind: 6mph
Humidity: 96%   Direction: 230°SW
Pressure: 29.89"   Gusts: NA
Location:  47.64°N, 117.59°W
Report Text: KGEG 230453Z 23005KT 10SM FEW028 M01/M01 A2989 RMK AO2 SLP138 T10061011
Loading
Personal Weather Stations






























Interactive Weather Map New forecast layout! Learn more

10-Day Weather Forecast

Advertisements
Track Severe Weather on mobile